Archival Weather

Vermilion Rgnl

Danville, Illinois (KDNV)

Report from: Saturday, April 13, 2024 12:55 PM CDT
Current time: Sunday, July 14, 2024 6:48 AM CDT

Current weather – Weather history – Daily summaries
Weather forecast

Temperature18.7°C (65.7°F)
Dew point3.9°C (39.0°F)
Winds 11 kts (5.7 m/s, 12.7 mph) West (270°)
Wind gusts 14 kts (7.2 m/s, 16.1 mph)
Visibility10 mi. (16.1 km)
Clouds Sky clear
Altimeter30.13 in.Hg (1020 mB)
Relative humidity38 %
Density altitude318 ft. (97 m)
Remarks Fully automated report
Automated weather observing station with precipitation discriminator
Flight conditions Visual Meteorological Conditions
Raw dataKDNV 131755Z AUTO 27011G14KT 10SM CLR 19/04 A3013 RMK AO2 T01870039 10187 20061
An error has occurred. This application may no longer respond until reloaded. Reload 🗙